createdAt,value
2018-03-28T00:00:57.389Z,24.77
2018-03-28T00:03:27.806Z,23.58
2018-03-28T00:05:58.071Z,27.13
2018-03-28T00:08:28.329Z,25.50
2018-03-28T00:10:58.587Z,23.25
2018-03-28T00:13:29.182Z,25.48
2018-03-28T00:15:59.397Z,24.58
2018-03-28T00:18:29.914Z,25.90
2018-03-28T00:21:00.486Z,26.05
2018-03-28T00:23:31.499Z,25.35
2018-03-28T00:26:02.786Z,23.52
2018-03-28T00:28:33.671Z,23.73
2018-03-28T00:31:04.450Z,28.75
2018-03-28T00:33:34.733Z,27.05
2018-03-28T00:36:05.541Z,26.33
2018-03-28T00:38:36.081Z,28.87
2018-03-28T00:41:06.331Z,30.02
2018-03-28T00:43:36.970Z,27.05
2018-03-28T00:46:07.830Z,29.80
2018-03-28T00:48:39.085Z,25.77
2018-03-28T00:51:18.630Z,29.15
2018-03-28T00:53:49.512Z,26.83
2018-03-28T00:56:20.017Z,26.75
2018-03-28T00:58:50.701Z,27.40
2018-03-28T01:01:21.707Z,24.63
2018-03-28T01:03:52.268Z,27.55
2018-03-28T01:06:22.876Z,26.40
2018-03-28T01:08:54.331Z,26.20
2018-03-28T01:11:24.859Z,28.53
2018-03-28T01:13:55.294Z,29.30
2018-03-28T01:16:26.691Z,27.30
2018-03-28T01:18:56.868Z,25.02
2018-03-28T01:21:27.124Z,27.77
2018-03-28T01:23:57.830Z,27.53
2018-03-28T01:26:28.166Z,26.07
2018-03-28T01:28:58.369Z,25.23
2018-03-28T01:31:28.968Z,23.30
2018-03-28T01:33:59.195Z,27.90
2018-03-28T01:36:29.467Z,24.00
2018-03-28T01:39:00.467Z,24.20
2018-03-28T01:41:31.084Z,24.95
2018-03-28T01:44:01.376Z,22.52
2018-03-28T01:46:31.852Z,24.40
2018-03-28T01:49:02.431Z,22.33
2018-03-28T01:51:33.115Z,24.33
2018-03-28T01:54:03.678Z,22.70
2018-03-28T01:56:34.292Z,24.10
2018-03-28T01:59:05.316Z,23.33
2018-03-28T02:01:35.843Z,22.10
2018-03-28T02:04:06.309Z,22.42
2018-03-28T02:06:36.634Z,22.37
2018-03-28T02:09:08.279Z,21.58
2018-03-28T02:11:38.830Z,21.27
2018-03-28T02:14:09.413Z,23.90
2018-03-28T02:16:40.235Z,23.85
2018-03-28T02:19:11.011Z,21.67
2018-03-28T02:21:41.718Z,21.85
2018-03-28T02:24:13.092Z,19.77
2018-03-28T02:26:44.009Z,21.20
2018-03-28T02:29:14.233Z,20.73
2018-03-28T02:31:44.344Z,21.87
2018-03-28T02:34:14.523Z,23.83
2018-03-28T02:36:45.548Z,21.00
2018-03-28T02:39:15.677Z,21.45
2018-03-28T02:41:46.641Z,21.50
2018-03-28T02:44:17.187Z,20.60
2018-03-28T02:46:47.767Z,22.40
2018-03-28T02:49:19.378Z,21.48
2018-03-28T02:51:49.917Z,21.67
2018-03-28T02:54:20.331Z,20.60
2018-03-28T02:56:51.213Z,21.37
2018-03-28T02:59:22.129Z,21.12
2018-03-28T03:01:52.679Z,21.77
2018-03-28T03:04:23.863Z,22.15
2018-03-28T03:06:54.765Z,17.73
2018-03-28T03:09:25.719Z,19.05
2018-03-28T03:11:56.803Z,16.05
2018-03-28T03:14:27.460Z,14.45
2018-03-28T03:16:58.508Z,15.52
2018-03-28T03:19:29.519Z,15.07
2018-03-28T03:22:00.624Z,14.93
2018-03-28T03:24:31.516Z,14.40
2018-03-28T03:27:02.422Z,14.50
2018-03-28T03:29:32.644Z,11.40
2018-03-28T03:32:03.553Z,13.68
2018-03-28T03:34:33.854Z,13.05
2018-03-28T03:37:04.192Z,12.55
2018-03-28T03:39:35.961Z,10.63
2018-03-28T03:42:07.090Z,12.45
2018-03-28T03:44:37.944Z,14.18
2018-03-28T03:47:09.371Z,10.82
2018-03-28T03:49:39.884Z,11.55
2018-03-28T03:52:10.594Z,11.05
2018-03-28T03:54:41.123Z,12.50
2018-03-28T03:57:11.956Z,11.10
2018-03-28T03:59:43.124Z,10.80
2018-03-28T04:02:15.425Z,10.80
2018-03-28T04:04:46.110Z,9.55
2018-03-28T04:07:17.069Z,9.55
2018-03-28T04:09:47.511Z,12.02
2018-03-28T04:12:18.100Z,12.27
2018-03-28T04:14:49.631Z,10.07
2018-03-28T04:17:20.870Z,9.77
2018-03-28T04:19:51.316Z,10.43
2018-03-28T04:22:24.128Z,10.57
2018-03-28T04:25:21.917Z,9.63
2018-03-28T04:27:52.402Z,9.90
2018-03-28T04:30:22.930Z,10.55
2018-03-28T04:32:53.588Z,12.00
2018-03-28T04:35:24.967Z,11.60
2018-03-28T04:37:55.641Z,11.38
2018-03-28T04:40:26.155Z,12.43
2018-03-28T04:42:59.453Z,12.07
2018-03-28T04:45:30.106Z,12.43
2018-03-28T04:48:02.568Z,12.00
2018-03-28T04:50:33.443Z,12.18
2018-03-28T04:53:04.092Z,12.85
2018-03-28T04:55:35.339Z,11.48
2018-03-28T04:58:05.563Z,13.85
2018-03-28T05:00:36.614Z,13.07
2018-03-28T05:03:07.930Z,9.48
2018-03-28T05:05:41.052Z,10.52
2018-03-28T05:08:12.063Z,12.70
2018-03-28T05:10:43.138Z,10.68
2018-03-28T05:13:16.545Z,10.85
2018-03-28T05:15:48.102Z,11.45
2018-03-28T05:18:19.030Z,11.07
2018-03-28T05:20:51.556Z,12.93
2018-03-28T05:23:24.478Z,10.73
2018-03-28T05:25:55.842Z,10.98
2018-03-28T05:28:26.358Z,11.43
2018-03-28T05:33:36.998Z,13.13
2018-03-28T05:38:45.900Z,9.67
2018-03-28T05:41:17.376Z,13.02
2018-03-28T05:43:52.019Z,9.20
2018-03-28T05:46:22.620Z,8.90
2018-03-28T05:48:53.379Z,8.13
2018-03-28T05:51:24.093Z,9.50
2018-03-28T05:53:54.825Z,6.95
2018-03-28T05:56:32.973Z,5.85
2018-03-28T05:59:07.190Z,8.10
2018-03-28T06:01:38.524Z,7.07
2018-03-28T06:04:09.810Z,8.70
2018-03-28T06:06:40.825Z,6.35
2018-03-28T06:09:13.537Z,6.55
2018-03-28T06:11:44.578Z,7.03
2018-03-28T06:14:15.860Z,6.15
2018-03-28T06:16:46.381Z,6.30
2018-03-28T06:19:18.105Z,4.97
2018-03-28T06:21:50.172Z,4.90
2018-03-28T06:24:21.074Z,4.60
2018-03-28T06:26:53.566Z,4.18
2018-03-28T06:29:24.974Z,5.53
2018-03-28T06:31:57.036Z,5.50
2018-03-28T06:34:29.197Z,5.00
2018-03-28T06:37:01.021Z,4.90
2018-03-28T06:39:32.222Z,4.47
2018-03-28T06:42:04.078Z,4.20
2018-03-28T06:44:35.832Z,6.95
2018-03-28T06:47:06.572Z,6.70
2018-03-28T06:49:38.894Z,4.57
2018-03-28T06:52:14.817Z,4.00
2018-03-28T06:54:54.442Z,4.25
2018-03-28T06:57:36.102Z,4.30
2018-03-28T07:00:06.460Z,4.50
2018-03-28T07:02:36.825Z,4.12
2018-03-28T07:05:22.195Z,2.60
2018-03-28T07:07:57.093Z,5.80
2018-03-28T07:10:30.191Z,4.47
2018-03-28T07:13:15.710Z,3.42
2018-03-28T07:15:46.780Z,3.05
2018-03-28T07:18:17.437Z,6.68
2018-03-28T07:20:47.850Z,3.30
2018-03-28T07:23:19.354Z,3.50
2018-03-28T07:25:51.832Z,4.40
2018-03-28T07:28:24.288Z,2.50
2018-03-28T07:30:55.068Z,2.30
2018-03-28T07:33:40.841Z,2.22
2018-03-28T07:36:12.947Z,3.62
2018-03-28T07:38:44.674Z,2.00
2018-03-28T07:41:15.432Z,1.92
2018-03-28T07:43:46.175Z,3.15
2018-03-28T07:46:22.768Z,2.40
2018-03-28T07:48:55.320Z,1.90
2018-03-28T07:51:38.425Z,1.90
2018-03-28T07:54:09.615Z,2.40
2018-03-28T07:56:49.563Z,1.73
2018-03-28T07:59:23.200Z,2.30
2018-03-28T08:02:06.878Z,3.50
2018-03-28T08:04:38.277Z,1.40
2018-03-28T08:07:08.970Z,1.90
2018-03-28T08:09:47.491Z,2.10
2018-03-28T08:12:23.124Z,2.00
2018-03-28T08:14:54.672Z,2.83
2018-03-28T08:17:26.647Z,2.83
2018-03-28T08:19:57.958Z,1.50
2018-03-28T08:22:30.230Z,2.00
2018-03-28T08:25:11.970Z,2.60
2018-03-28T08:27:47.680Z,2.50
2018-03-28T08:30:25.584Z,1.80
2018-03-28T08:33:33.075Z,2.72
2018-03-28T08:39:20.642Z,2.17
2018-03-28T08:42:34.858Z,3.20
2018-03-28T08:45:44.411Z,2.70
2018-03-28T08:48:23.498Z,2.42
2018-03-28T08:51:16.737Z,2.87
2018-03-28T08:55:01.838Z,2.30
2018-03-28T08:58:30.140Z,2.80
2018-03-28T09:04:31.190Z,2.83
2018-03-28T09:07:02.330Z,2.28
2018-03-28T09:10:24.460Z,2.15
2018-03-28T09:13:00.430Z,2.30
2018-03-28T09:15:53.990Z,2.00
2018-03-28T09:18:35.579Z,2.20
2018-03-28T09:21:09.208Z,2.15
2018-03-28T09:23:46.012Z,1.70
2018-03-28T09:26:17.055Z,1.57
2018-03-28T09:29:11.743Z,2.55
2018-03-28T09:31:46.413Z,1.73
2018-03-28T09:34:42.801Z,4.00
2018-03-28T09:40:51.164Z,2.40
2018-03-28T09:43:45.824Z,2.25
2018-03-28T09:57:07.893Z,2.15
2018-03-28T09:59:41.259Z,1.95
2018-03-28T10:02:13.707Z,2.55
2018-03-28T10:04:51.110Z,2.30
2018-03-28T10:07:33.992Z,1.87
2018-03-28T10:10:18.602Z,2.97
2018-03-28T10:12:49.813Z,1.73
2018-03-28T10:15:22.282Z,2.70
2018-03-28T10:18:05.835Z,1.20
2018-03-28T10:20:36.835Z,1.83
2018-03-28T10:23:07.515Z,1.80
2018-03-28T10:25:53.123Z,2.95
2018-03-28T10:28:24.794Z,1.70
2018-03-28T10:30:55.030Z,2.77
2018-03-28T10:33:25.801Z,2.20
2018-03-28T10:35:56.535Z,2.30
2018-03-28T10:38:28.187Z,3.62
2018-03-28T10:41:01.893Z,2.40
2018-03-28T10:43:36.303Z,5.25
2018-03-28T10:46:08.178Z,3.20
2018-03-28T10:48:44.286Z,1.50
2018-03-28T10:51:19.644Z,2.22
2018-03-28T10:54:11.048Z,1.15
2018-03-28T10:56:41.385Z,3.50
2018-03-28T10:59:13.268Z,1.52
2018-03-28T11:01:44.438Z,1.50
2018-03-28T11:04:17.680Z,2.40
2018-03-28T11:06:51.981Z,1.92
2018-03-28T11:09:37.992Z,2.70
2018-03-28T11:12:12.107Z,2.33
2018-03-28T11:14:42.697Z,2.20
2018-03-28T11:17:15.285Z,1.20
2018-03-28T11:19:51.016Z,1.65
2018-03-28T11:22:21.819Z,1.53
2018-03-28T11:24:54.053Z,1.30
2018-03-28T11:27:26.642Z,1.27
2018-03-28T11:29:59.717Z,1.08
2018-03-28T11:32:34.487Z,1.83
2018-03-28T11:35:05.709Z,2.20
2018-03-28T11:37:40.162Z,2.95
2018-03-28T11:40:52.030Z,1.10
2018-03-28T11:43:25.080Z,1.30
2018-03-28T11:46:02.460Z,1.40
2018-03-28T11:48:36.058Z,2.00
2018-03-28T11:51:11.078Z,5.00
2018-03-28T11:53:53.268Z,2.90
2018-03-28T11:56:40.250Z,1.80
2018-03-28T11:59:12.085Z,1.70
2018-03-28T12:01:45.782Z,2.00
2018-03-28T12:04:22.468Z,2.30
2018-03-28T12:06:57.985Z,1.95
2018-03-28T12:10:00.152Z,2.17
2018-03-28T12:12:36.249Z,2.05
2018-03-28T12:15:32.411Z,2.10
2018-03-28T12:18:08.001Z,3.77
2018-03-28T12:20:54.095Z,1.60
2018-03-28T12:23:47.871Z,1.75
2018-03-28T12:26:21.094Z,2.00
2018-03-28T12:30:21.340Z,4.72
2018-03-28T12:33:00.743Z,3.40
2018-03-28T12:35:39.587Z,2.00
2018-03-28T12:38:54.944Z,2.00
2018-03-28T12:41:28.818Z,1.98
2018-03-28T12:44:16.100Z,2.50
2018-03-28T12:46:48.605Z,2.45
2018-03-28T12:49:21.654Z,1.73
2018-03-28T12:53:03.337Z,1.40
2018-03-28T12:55:34.790Z,1.60
2018-03-28T12:58:09.751Z,1.10
2018-03-28T13:00:41.097Z,1.17
2018-03-28T13:03:12.370Z,1.75
2018-03-28T13:05:47.949Z,1.33
2018-03-28T13:08:21.260Z,2.45
2018-03-28T13:11:06.498Z,1.60
2018-03-28T13:13:43.001Z,1.65
2018-03-28T13:16:15.632Z,1.70
2018-03-28T13:18:46.481Z,1.12
2018-03-28T13:21:17.115Z,1.25
2018-03-28T13:23:48.185Z,1.50
2018-03-28T13:26:44.946Z,1.10
2018-03-28T13:32:26.955Z,2.05
2018-03-28T13:35:01.063Z,2.30
2018-03-28T13:37:33.964Z,5.53
2018-03-28T13:40:06.605Z,1.73
2018-03-28T13:42:39.737Z,1.20
2018-03-28T13:45:11.818Z,1.80
2018-03-28T13:47:43.897Z,2.00
2018-03-28T13:50:15.793Z,1.70
2018-03-28T13:52:47.041Z,2.37
2018-03-28T13:55:18.173Z,2.30
2018-03-28T13:57:50.046Z,5.30
2018-03-28T14:00:23.072Z,2.50
2018-03-28T14:02:53.519Z,4.83
2018-03-28T14:05:25.377Z,2.70
2018-03-28T14:09:09.934Z,2.40
2018-03-28T14:11:41.054Z,1.00
2018-03-28T14:17:10.691Z,6.23
2018-03-28T14:19:45.482Z,1.70
2018-03-28T14:22:52.293Z,1.90
2018-03-28T14:25:56.109Z,3.70
2018-03-28T14:29:03.254Z,2.50
2018-03-28T14:31:43.460Z,2.03
2018-03-28T14:41:25.625Z,2.60
2018-03-28T14:43:57.952Z,1.48
2018-03-28T14:50:08.115Z,2.87
2018-03-28T14:52:40.373Z,1.83
2018-03-28T14:55:13.114Z,2.60
2018-03-28T14:57:47.880Z,1.65
2018-03-28T15:00:19.199Z,2.00
2018-03-28T15:02:50.790Z,1.47
2018-03-28T15:05:23.706Z,1.40
2018-03-28T15:08:14.101Z,2.40
2018-03-28T15:10:45.882Z,1.70
2018-03-28T15:13:17.510Z,2.72
2018-03-28T15:15:49.313Z,1.45
2018-03-28T15:18:20.971Z,2.30
2018-03-28T15:20:55.895Z,3.40
2018-03-28T15:23:35.636Z,3.83
2018-03-28T15:26:06.846Z,3.40
2018-03-28T15:28:39.658Z,4.15
2018-03-28T15:31:10.264Z,3.70
2018-03-28T15:33:42.242Z,3.65
2018-03-28T15:36:14.641Z,2.03
2018-03-28T15:38:46.388Z,2.08
2018-03-28T15:41:19.808Z,3.55
2018-03-28T15:43:57.206Z,2.22
2018-03-28T15:46:30.430Z,1.67
2018-03-28T15:49:02.661Z,6.07
2018-03-28T15:51:49.362Z,3.60
2018-03-28T15:54:23.335Z,4.40
2018-03-28T15:56:57.196Z,6.00
2018-03-28T15:59:30.920Z,3.03
2018-03-28T16:02:02.057Z,4.30
2018-03-28T16:04:34.666Z,2.30
2018-03-28T16:07:05.910Z,2.70
2018-03-28T16:09:55.844Z,4.00
2018-03-28T16:12:29.783Z,3.80
2018-03-28T16:15:04.896Z,3.47
2018-03-28T16:17:41.086Z,3.05
2018-03-28T16:20:12.304Z,3.20
2018-03-28T16:22:47.611Z,2.80
2018-03-28T16:25:19.699Z,3.30
2018-03-28T16:27:51.778Z,5.00
2018-03-28T16:30:27.739Z,4.68
2018-03-28T16:33:04.720Z,2.90
2018-03-28T16:35:35.019Z,4.30
2018-03-28T16:38:09.308Z,4.40
2018-03-28T16:40:40.493Z,2.90
2018-03-28T16:43:10.749Z,3.70
2018-03-28T16:45:41.065Z,2.20
2018-03-28T16:48:11.869Z,7.60
2018-03-28T16:50:42.875Z,7.00
2018-03-28T16:53:16.402Z,4.55
2018-03-28T16:56:26.948Z,5.03
2018-03-28T16:58:58.230Z,3.58
2018-03-28T17:01:29.493Z,4.80
2018-03-28T17:04:00.542Z,3.00
2018-03-28T17:06:31.147Z,2.42
2018-03-28T17:09:02.234Z,4.30
2018-03-28T17:11:32.856Z,3.55
2018-03-28T17:14:19.250Z,5.23
2018-03-28T17:16:56.089Z,6.28
2018-03-28T17:23:17.844Z,5.93
2018-03-28T17:25:48.832Z,6.30
2018-03-28T17:33:24.857Z,4.93
2018-03-28T17:35:56.679Z,4.40
2018-03-28T17:38:28.282Z,5.15
2018-03-28T17:40:58.814Z,4.62
2018-03-28T17:43:30.616Z,4.90
2018-03-28T17:46:06.379Z,7.68
2018-03-28T17:48:37.452Z,6.40
2018-03-28T17:51:08.839Z,4.03
2018-03-28T17:53:51.641Z,8.30
2018-03-28T17:56:27.693Z,8.32
2018-03-28T17:59:04.330Z,3.90
2018-03-28T18:01:37.219Z,4.40
2018-03-28T18:04:08.275Z,5.47
2018-03-28T18:06:39.455Z,7.65
2018-03-28T18:09:19.668Z,5.03
2018-03-28T18:12:50.060Z,12.83
2018-03-28T18:15:25.861Z,10.55
2018-03-28T18:17:56.443Z,15.57
2018-03-28T18:20:26.993Z,9.98
2018-03-28T18:22:57.953Z,7.23
2018-03-28T18:25:29.845Z,4.40
2018-03-28T18:28:02.604Z,4.82
2018-03-28T18:30:33.527Z,5.30
2018-03-28T18:33:04.273Z,3.58
2018-03-28T18:35:37.236Z,2.50
2018-03-28T18:38:09.479Z,2.30
2018-03-28T18:40:40.733Z,3.75
2018-03-28T18:43:11.364Z,5.85
2018-03-28T18:45:42.069Z,3.80
2018-03-28T18:48:13.368Z,3.30
2018-03-28T18:50:44.503Z,2.47
2018-03-28T18:53:16.196Z,6.28
2018-03-28T18:55:47.030Z,5.00
2018-03-28T18:58:17.941Z,6.15
2018-03-28T19:00:50.159Z,13.57
2018-03-28T19:03:20.855Z,6.17
2018-03-28T19:05:52.172Z,8.67
2018-03-28T19:08:25.792Z,7.50
2018-03-28T19:10:56.454Z,6.07
2018-03-28T19:13:50.350Z,8.98
2018-03-28T19:16:21.508Z,13.07
2018-03-28T19:18:52.289Z,4.80
2018-03-28T19:21:22.663Z,6.87
2018-03-28T19:23:56.486Z,8.00
2018-03-28T19:26:28.321Z,9.73
2018-03-28T19:29:27.398Z,7.78
2018-03-28T19:31:58.778Z,5.93
2018-03-28T19:34:29.468Z,5.50
2018-03-28T19:37:00.537Z,4.73
2018-03-28T19:39:30.976Z,6.72
2018-03-28T19:42:02.214Z,5.40
2018-03-28T19:44:32.941Z,6.07
2018-03-28T19:47:03.274Z,5.00
2018-03-28T19:49:35.599Z,7.18
2018-03-28T19:52:13.290Z,4.45
2018-03-28T19:54:44.503Z,7.53
2018-03-28T19:57:14.880Z,5.30
2018-03-28T19:59:45.174Z,4.40
2018-03-28T20:02:16.066Z,5.15
2018-03-28T20:04:47.717Z,5.72
2018-03-28T20:07:18.733Z,6.00
2018-03-28T20:09:50.512Z,5.67
2018-03-28T20:12:22.180Z,6.00
2018-03-28T20:14:54.731Z,5.40
2018-03-28T20:17:26.897Z,4.72
2018-03-28T20:19:57.316Z,8.60
2018-03-28T20:22:28.169Z,9.63
2018-03-28T20:24:59.257Z,12.30
2018-03-28T20:27:32.226Z,8.13
2018-03-28T20:30:03.227Z,6.78
2018-03-28T20:32:39.563Z,4.15
2018-03-28T20:35:11.613Z,4.20
2018-03-28T20:37:42.494Z,6.28
2018-03-28T20:40:13.397Z,4.78
2018-03-28T20:42:44.918Z,5.80
2018-03-28T20:45:16.034Z,4.20
2018-03-28T20:47:54.624Z,5.28
2018-03-28T20:50:44.857Z,2.87
2018-03-28T20:53:15.805Z,3.77
2018-03-28T20:55:47.513Z,4.20
2018-03-28T20:58:22.926Z,10.48
2018-03-28T21:00:53.574Z,8.82
2018-03-28T21:03:25.492Z,4.68
2018-03-28T21:05:56.756Z,6.95
2018-03-28T21:08:28.025Z,9.85
2018-03-28T21:10:58.437Z,5.40
2018-03-28T21:13:30.331Z,4.15
2018-03-28T21:16:00.930Z,3.78
2018-03-28T21:18:31.478Z,3.58
2018-03-28T21:21:01.806Z,3.87
2018-03-28T21:23:33.477Z,5.68
2018-03-28T21:26:04.135Z,4.25
2018-03-28T21:28:34.699Z,4.03
2018-03-28T21:31:05.808Z,3.45
2018-03-28T21:33:36.593Z,3.45
2018-03-28T21:36:06.911Z,2.90
2018-03-28T21:38:37.477Z,3.30
2018-03-28T21:41:07.981Z,3.80
2018-03-28T21:43:38.738Z,2.62
2018-03-28T21:46:09.516Z,3.10
2018-03-28T21:48:40.358Z,3.43
2018-03-28T21:51:10.951Z,2.37
2018-03-28T21:53:41.310Z,2.30
2018-03-28T21:56:11.983Z,4.75
2018-03-28T21:58:42.599Z,4.90
2018-03-28T22:01:14.816Z,3.08
2018-03-28T22:03:45.628Z,2.00
2018-03-28T22:06:16.200Z,4.20
2018-03-28T22:08:46.490Z,4.35
2018-03-28T22:11:17.124Z,2.20
2018-03-28T22:13:47.462Z,2.30
2018-03-28T22:16:18.407Z,2.78
2018-03-28T22:18:51.264Z,2.30
2018-03-28T22:21:21.565Z,2.70
2018-03-28T22:23:52.765Z,3.75
2018-03-28T22:26:23.768Z,2.80
2018-03-28T22:28:54.518Z,3.30
2018-03-28T22:31:25.582Z,3.10
2018-03-28T22:33:55.784Z,2.40
2018-03-28T22:36:25.986Z,3.03
2018-03-28T22:38:56.918Z,5.15
2018-03-28T22:41:27.542Z,4.62
2018-03-28T22:43:58.907Z,3.00
2018-03-28T22:46:29.786Z,3.40
2018-03-28T22:49:00.207Z,4.47
2018-03-28T22:51:30.739Z,5.00
2018-03-28T22:54:02.118Z,4.28
2018-03-28T22:56:32.615Z,3.60
2018-03-28T22:59:03.746Z,3.20
2018-03-28T23:01:35.433Z,3.20
2018-03-28T23:04:05.851Z,2.03
2018-03-28T23:06:36.678Z,4.40
2018-03-28T23:09:07.899Z,3.50
2018-03-28T23:11:39.571Z,3.90
2018-03-28T23:14:12.815Z,6.83
2018-03-28T23:16:43.927Z,5.78
2018-03-28T23:19:14.588Z,6.40
2018-03-28T23:21:45.979Z,4.35
2018-03-28T23:24:17.098Z,4.78
2018-03-28T23:26:48.073Z,4.10
2018-03-28T23:29:19.053Z,4.65
2018-03-28T23:31:49.955Z,3.10
2018-03-28T23:34:20.864Z,4.60
2018-03-28T23:36:53.086Z,5.95
2018-03-28T23:39:24.242Z,4.97
2018-03-28T23:41:55.460Z,5.57
2018-03-28T23:44:26.692Z,3.95
2018-03-28T23:46:59.554Z,5.25
2018-03-28T23:49:30.729Z,4.00
2018-03-28T23:52:01.509Z,4.65
2018-03-28T23:54:31.984Z,4.55
2018-03-28T23:57:02.414Z,3.60
2018-03-28T23:59:32.849Z,3.33
